aviador You're here:

OERY Decoded Metar

RIYADH (SAUD-AFB in SAUDI ARABIA
Report Time2018-01-16 21:00:00
UTC Time2018-01-16 21:10:58
Flight Rules vfr VFR
Wind350° at 05 kt
W.Decomp.*RWY 33: 4.8 kt HW 1.5 kt RCW
RWY 01: 4.6 kt HW 1.9 kt LCW
W.Rank350° ranks 3
Current wind is below 350° avg. (7.9)
Visibility9999 m
Phenomena:N/A
Clouds:N/A
Expected CloudBase > 5,200 ft AGL from Temp-Dew spread
CeilingNone
Temp13°C (ISA +2)
Dew Point00°C (41% RH)
AAT9.2°C
QNH1022 hPa
Density Alt2,031 ft
Elevation2,008 ft
Report Wrong Elevation
Raw Report
METAR OERY 162100Z 35005KT CAVOK 13/00 Q1022=

Extra information for OERY:More info

Metar Taf Metar & Taf Last 4 Metars F.Rules Stats Wind Profile Meteogram Temp Stats Airport Information Weather charts Add Link Nearby VenuesMetar ALERT Operation Metar Decoded Social comments